sensor_id;sensor_type;location;lat;lon;timestamp;P1;durP1;ratioP1;P2;durP2;ratioP2
60292;SDS011;52402;52.670;6.750;2023-01-08T00:02:15;5.45;;;4.60;;
60292;SDS011;52402;52.670;6.750;2023-01-08T00:04:41;5.13;;;4.30;;
60292;SDS011;52402;52.670;6.750;2023-01-08T00:07:07;6.45;;;4.32;;
60292;SDS011;52402;52.670;6.750;2023-01-08T00:09:33;5.78;;;4.68;;
60292;SDS011;52402;52.670;6.750;2023-01-08T00:11:58;6.93;;;4.65;;
60292;SDS011;52402;52.670;6.750;2023-01-08T00:14:24;5.65;;;4.13;;
60292;SDS011;52402;52.670;6.750;2023-01-08T00:16:49;6.45;;;4.88;;
60292;SDS011;52402;52.670;6.750;2023-01-08T00:19:16;6.50;;;5.00;;
60292;SDS011;52402;52.670;6.750;2023-01-08T00:21:43;6.70;;;4.22;;
60292;SDS011;52402;52.670;6.750;2023-01-08T00:24:09;6.00;;;4.60;;
60292;SDS011;52402;52.670;6.750;2023-01-08T00:26:34;5.93;;;4.65;;
60292;SDS011;52402;52.670;6.750;2023-01-08T00:29:00;6.15;;;4.70;;
60292;SDS011;52402;52.670;6.750;2023-01-08T00:31:25;6.05;;;4.80;;
60292;SDS011;52402;52.670;6.750;2023-01-08T00:33:51;5.78;;;4.57;;
60292;SDS011;52402;52.670;6.750;2023-01-08T00:36:17;6.47;;;4.50;;
60292;SDS011;52402;52.670;6.750;2023-01-08T00:38:44;6.18;;;4.80;;
60292;SDS011;52402;52.670;6.750;2023-01-08T00:41:11;6.50;;;5.00;;
60292;SDS011;52402;52.670;6.750;2023-01-08T00:43:37;6.00;;;4.55;;
60292;SDS011;52402;52.670;6.750;2023-01-08T00:46:02;6.07;;;4.53;;
60292;SDS011;52402;52.670;6.750;2023-01-08T00:48:29;6.65;;;4.85;;
60292;SDS011;52402;52.670;6.750;2023-01-08T00:50:55;6.43;;;4.70;;
60292;SDS011;52402;52.670;6.750;2023-01-08T00:53:21;6.30;;;4.88;;
60292;SDS011;52402;52.670;6.750;2023-01-08T00:55:47;7.43;;;4.65;;
60292;SDS011;52402;52.670;6.750;2023-01-08T00:58:13;6.53;;;4.95;;
60292;SDS011;52402;52.670;6.750;2023-01-08T01:00:39;6.47;;;4.90;;
60292;SDS011;52402;52.670;6.750;2023-01-08T01:03:04;6.78;;;5.00;;
60292;SDS011;52402;52.670;6.750;2023-01-08T01:05:30;6.35;;;5.10;;
60292;SDS011;52402;52.670;6.750;2023-01-08T01:07:56;6.47;;;5.07;;
60292;SDS011;52402;52.670;6.750;2023-01-08T01:10:22;8.07;;;5.45;;
60292;SDS011;52402;52.670;6.750;2023-01-08T01:12:48;8.63;;;5.47;;
60292;SDS011;52402;52.670;6.750;2023-01-08T01:15:15;6.32;;;5.00;;
60292;SDS011;52402;52.670;6.750;2023-01-08T01:17:42;7.28;;;5.03;;
60292;SDS011;52402;52.670;6.750;2023-01-08T01:20:10;6.72;;;4.85;;
60292;SDS011;52402;52.670;6.750;2023-01-08T01:22:38;6.32;;;5.00;;
60292;SDS011;52402;52.670;6.750;2023-01-08T01:25:03;6.43;;;5.00;;
60292;SDS011;52402;52.670;6.750;2023-01-08T01:27:30;6.93;;;5.10;;
60292;SDS011;52402;52.670;6.750;2023-01-08T01:29:55;8.05;;;5.13;;
60292;SDS011;52402;52.670;6.750;2023-01-08T01:32:21;7.40;;;5.10;;
60292;SDS011;52402;52.670;6.750;2023-01-08T01:34:47;6.97;;;5.40;;
60292;SDS011;52402;52.670;6.750;2023-01-08T01:37:13;7.30;;;2.40;;
60292;SDS011;52402;52.670;6.750;2023-01-08T01:39:40;6.53;;;2.22;;
60292;SDS011;52402;52.670;6.750;2023-01-08T01:42:17;5.07;;;2.00;;
60292;SDS011;52402;52.670;6.750;2023-01-08T01:45:03;5.70;;;1.90;;
60292;SDS011;52402;52.670;6.750;2023-01-08T01:50:38;6.40;;;2.33;;
60292;SDS011;52402;52.670;6.750;2023-01-08T01:53:11;7.10;;;2.55;;
60292;SDS011;52402;52.670;6.750;2023-01-08T01:55:41;8.05;;;2.53;;
60292;SDS011;52402;52.670;6.750;2023-01-08T02:03:04;6.82;;;2.15;;
60292;SDS011;52402;52.670;6.750;2023-01-08T02:14:06;6.50;;;2.58;;
60292;SDS011;52402;52.670;6.750;2023-01-08T02:17:00;6.85;;;2.63;;
60292;SDS011;52402;52.670;6.750;2023-01-08T02:24:38;6.95;;;2.40;;
60292;SDS011;52402;52.670;6.750;2023-01-08T02:27:15;6.40;;;2.60;;
60292;SDS011;52402;52.670;6.750;2023-01-08T02:29:42;6.20;;;2.97;;
60292;SDS011;52402;52.670;6.750;2023-01-08T02:32:08;6.97;;;3.92;;
60292;SDS011;52402;52.670;6.750;2023-01-08T02:34:34;5.80;;;3.35;;
60292;SDS011;52402;52.670;6.750;2023-01-08T02:36:59;7.05;;;4.00;;
60292;SDS011;52402;52.670;6.750;2023-01-08T02:47:25;8.50;;;6.40;;
60292;SDS011;52402;52.670;6.750;2023-01-08T02:50:30;9.88;;;6.88;;
60292;SDS011;52402;52.670;6.750;2023-01-08T02:53:11;10.85;;;6.90;;
60292;SDS011;52402;52.670;6.750;2023-01-08T02:55:47;8.55;;;7.15;;
60292;SDS011;52402;52.670;6.750;2023-01-08T02:58:17;10.55;;;7.43;;
60292;SDS011;52402;52.670;6.750;2023-01-08T03:00:43;10.18;;;7.22;;
60292;SDS011;52402;52.670;6.750;2023-01-08T03:03:12;9.13;;;6.80;;
60292;SDS011;52402;52.670;6.750;2023-01-08T03:05:40;10.05;;;7.45;;
60292;SDS011;52402;52.670;6.750;2023-01-08T03:08:07;10.43;;;7.10;;
60292;SDS011;52402;52.670;6.750;2023-01-08T03:10:34;10.25;;;7.10;;
60292;SDS011;52402;52.670;6.750;2023-01-08T03:13:05;10.73;;;7.80;;
60292;SDS011;52402;52.670;6.750;2023-01-08T03:15:52;10.50;;;7.05;;
60292;SDS011;52402;52.670;6.750;2023-01-08T03:18:32;10.73;;;6.70;;
60292;SDS011;52402;52.670;6.750;2023-01-08T03:21:03;9.10;;;6.10;;
60292;SDS011;52402;52.670;6.750;2023-01-08T03:23:31;9.15;;;7.25;;
60292;SDS011;52402;52.670;6.750;2023-01-08T03:25:59;8.98;;;7.18;;
60292;SDS011;52402;52.670;6.750;2023-01-08T03:28:28;9.57;;;6.38;;
60292;SDS011;52402;52.670;6.750;2023-01-08T03:30:58;10.07;;;6.70;;
60292;SDS011;52402;52.670;6.750;2023-01-08T03:33:25;10.00;;;6.68;;
60292;SDS011;52402;52.670;6.750;2023-01-08T03:35:54;10.02;;;7.38;;
60292;SDS011;52402;52.670;6.750;2023-01-08T03:38:24;9.98;;;6.53;;
60292;SDS011;52402;52.670;6.750;2023-01-08T03:40:53;11.13;;;7.43;;
60292;SDS011;52402;52.670;6.750;2023-01-08T03:43:32;10.88;;;7.88;;
60292;SDS011;52402;52.670;6.750;2023-01-08T03:45:58;11.65;;;7.55;;
60292;SDS011;52402;52.670;6.750;2023-01-08T03:48:28;10.77;;;8.93;;
60292;SDS011;52402;52.670;6.750;2023-01-08T03:50:57;11.40;;;9.43;;
60292;SDS011;52402;52.670;6.750;2023-01-08T03:53:23;10.88;;;7.97;;
60292;SDS011;52402;52.670;6.750;2023-01-08T03:55:48;12.30;;;9.20;;
60292;SDS011;52402;52.670;6.750;2023-01-08T03:58:14;15.25;;;9.70;;
60292;SDS011;52402;52.670;6.750;2023-01-08T04:00:40;13.18;;;9.48;;
60292;SDS011;52402;52.670;6.750;2023-01-08T04:03:05;11.90;;;8.75;;
60292;SDS011;52402;52.670;6.750;2023-01-08T04:05:31;11.70;;;7.50;;
60292;SDS011;52402;52.670;6.750;2023-01-08T04:07:57;9.05;;;6.18;;
60292;SDS011;52402;52.670;6.750;2023-01-08T04:10:23;10.88;;;5.45;;
60292;SDS011;52402;52.670;6.750;2023-01-08T04:12:49;9.02;;;4.45;;
60292;SDS011;52402;52.670;6.750;2023-01-08T04:15:14;8.82;;;4.50;;
60292;SDS011;52402;52.670;6.750;2023-01-08T04:17:40;8.65;;;4.38;;
60292;SDS011;52402;52.670;6.750;2023-01-08T04:20:06;7.43;;;3.30;;
60292;SDS011;52402;52.670;6.750;2023-01-08T04:22:32;8.98;;;3.88;;
60292;SDS011;52402;52.670;6.750;2023-01-08T04:24:58;7.50;;;3.95;;
60292;SDS011;52402;52.670;6.750;2023-01-08T04:27:24;7.68;;;3.35;;
60292;SDS011;52402;52.670;6.750;2023-01-08T04:29:49;10.05;;;4.40;;
60292;SDS011;52402;52.670;6.750;2023-01-08T04:32:15;8.45;;;5.10;;
60292;SDS011;52402;52.670;6.750;2023-01-08T04:34:40;7.95;;;4.50;;
60292;SDS011;52402;52.670;6.750;2023-01-08T04:37:06;7.45;;;4.18;;
60292;SDS011;52402;52.670;6.750;2023-01-08T04:39:32;7.50;;;3.88;;
60292;SDS011;52402;52.670;6.750;2023-01-08T04:41:57;10.25;;;4.70;;
60292;SDS011;52402;52.670;6.750;2023-01-08T04:44:23;7.38;;;4.32;;
60292;SDS011;52402;52.670;6.750;2023-01-08T04:46:48;10.85;;;5.30;;
60292;SDS011;52402;52.670;6.750;2023-01-08T04:49:14;9.35;;;5.50;;
60292;SDS011;52402;52.670;6.750;2023-01-08T04:51:39;9.65;;;6.80;;
60292;SDS011;52402;52.670;6.750;2023-01-08T04:54:05;12.40;;;8.27;;
60292;SDS011;52402;52.670;6.750;2023-01-08T04:56:31;13.30;;;8.07;;
60292;SDS011;52402;52.670;6.750;2023-01-08T04:58:57;11.75;;;7.22;;
60292;SDS011;52402;52.670;6.750;2023-01-08T05:01:24;9.25;;;5.80;;
60292;SDS011;52402;52.670;6.750;2023-01-08T05:03:54;9.52;;;5.63;;
60292;SDS011;52402;52.670;6.750;2023-01-08T05:06:21;10.05;;;4.53;;
60292;SDS011;52402;52.670;6.750;2023-01-08T05:08:47;8.95;;;4.60;;
60292;SDS011;52402;52.670;6.750;2023-01-08T05:11:12;11.48;;;4.50;;
60292;SDS011;52402;52.670;6.750;2023-01-08T05:13:38;10.38;;;3.90;;
60292;SDS011;52402;52.670;6.750;2023-01-08T05:16:04;9.80;;;3.90;;
60292;SDS011;52402;52.670;6.750;2023-01-08T05:18:30;9.20;;;3.70;;
60292;SDS011;52402;52.670;6.750;2023-01-08T05:20:59;9.50;;;3.55;;
60292;SDS011;52402;52.670;6.750;2023-01-08T05:25:52;8.82;;;3.63;;
60292;SDS011;52402;52.670;6.750;2023-01-08T05:28:20;10.50;;;3.78;;
60292;SDS011;52402;52.670;6.750;2023-01-08T05:30:47;7.90;;;3.38;;
60292;SDS011;52402;52.670;6.750;2023-01-08T05:33:13;9.38;;;3.20;;
60292;SDS011;52402;52.670;6.750;2023-01-08T05:35:39;7.72;;;2.85;;
60292;SDS011;52402;52.670;6.750;2023-01-08T05:38:05;9.95;;;2.90;;
60292;SDS011;52402;52.670;6.750;2023-01-08T05:40:31;7.07;;;2.70;;
60292;SDS011;52402;52.670;6.750;2023-01-08T05:42:57;6.15;;;2.15;;
60292;SDS011;52402;52.670;6.750;2023-01-08T05:45:23;7.85;;;2.20;;
60292;SDS011;52402;52.670;6.750;2023-01-08T05:47:49;9.88;;;2.33;;
60292;SDS011;52402;52.670;6.750;2023-01-08T05:50:15;7.30;;;2.20;;
60292;SDS011;52402;52.670;6.750;2023-01-08T05:52:40;10.45;;;2.35;;
60292;SDS011;52402;52.670;6.750;2023-01-08T05:55:06;7.22;;;2.05;;
60292;SDS011;52402;52.670;6.750;2023-01-08T05:57:32;8.98;;;2.50;;
60292;SDS011;52402;52.670;6.750;2023-01-08T05:59:58;6.05;;;2.17;;
60292;SDS011;52402;52.670;6.750;2023-01-08T06:02:23;7.47;;;2.25;;
60292;SDS011;52402;52.670;6.750;2023-01-08T06:04:49;7.38;;;2.30;;
60292;SDS011;52402;52.670;6.750;2023-01-08T06:07:14;7.93;;;2.65;;
60292;SDS011;52402;52.670;6.750;2023-01-08T06:09:40;7.45;;;2.20;;
60292;SDS011;52402;52.670;6.750;2023-01-08T06:12:06;8.35;;;2.13;;
60292;SDS011;52402;52.670;6.750;2023-01-08T06:14:31;9.07;;;2.53;;
60292;SDS011;52402;52.670;6.750;2023-01-08T06:16:57;8.43;;;2.70;;
60292;SDS011;52402;52.670;6.750;2023-01-08T06:19:22;7.38;;;2.45;;
60292;SDS011;52402;52.670;6.750;2023-01-08T06:21:48;6.18;;;2.50;;
60292;SDS011;52402;52.670;6.750;2023-01-08T06:24:14;7.03;;;1.90;;
60292;SDS011;52402;52.670;6.750;2023-01-08T06:26:39;8.13;;;2.20;;
60292;SDS011;52402;52.670;6.750;2023-01-08T06:29:05;8.80;;;2.10;;
60292;SDS011;52402;52.670;6.750;2023-01-08T06:31:30;9.18;;;2.30;;
60292;SDS011;52402;52.670;6.750;2023-01-08T06:33:56;7.38;;;2.10;;
60292;SDS011;52402;52.670;6.750;2023-01-08T06:36:22;8.68;;;2.50;;
60292;SDS011;52402;52.670;6.750;2023-01-08T06:38:47;10.18;;;2.53;;
60292;SDS011;52402;52.670;6.750;2023-01-08T06:41:13;6.82;;;2.20;;
60292;SDS011;52402;52.670;6.750;2023-01-08T06:43:38;7.65;;;2.30;;
60292;SDS011;52402;52.670;6.750;2023-01-08T06:46:04;8.43;;;2.22;;
60292;SDS011;52402;52.670;6.750;2023-01-08T06:48:32;8.35;;;2.50;;
60292;SDS011;52402;52.670;6.750;2023-01-08T06:50:59;8.63;;;2.47;;
60292;SDS011;52402;52.670;6.750;2023-01-08T06:53:25;10.27;;;2.30;;
60292;SDS011;52402;52.670;6.750;2023-01-08T06:55:51;9.52;;;2.50;;
60292;SDS011;52402;52.670;6.750;2023-01-08T06:58:21;9.02;;;2.65;;
60292;SDS011;52402;52.670;6.750;2023-01-08T07:00:47;8.25;;;2.42;;
60292;SDS011;52402;52.670;6.750;2023-01-08T07:03:13;8.13;;;2.63;;
60292;SDS011;52402;52.670;6.750;2023-01-08T07:05:38;9.10;;;2.70;;
60292;SDS011;52402;52.670;6.750;2023-01-08T07:08:04;10.73;;;3.55;;
60292;SDS011;52402;52.670;6.750;2023-01-08T07:10:30;6.70;;;2.50;;
60292;SDS011;52402;52.670;6.750;2023-01-08T07:12:56;9.02;;;2.70;;
60292;SDS011;52402;52.670;6.750;2023-01-08T07:15:22;10.88;;;2.63;;
60292;SDS011;52402;52.670;6.750;2023-01-08T07:17:48;10.23;;;2.90;;
60292;SDS011;52402;52.670;6.750;2023-01-08T07:20:13;7.53;;;2.63;;
60292;SDS011;52402;52.670;6.750;2023-01-08T07:22:39;11.45;;;3.00;;
60292;SDS011;52402;52.670;6.750;2023-01-08T07:25:05;9.32;;;2.60;;
60292;SDS011;52402;52.670;6.750;2023-01-08T07:27:31;8.75;;;2.70;;
60292;SDS011;52402;52.670;6.750;2023-01-08T07:29:57;7.50;;;2.60;;
60292;SDS011;52402;52.670;6.750;2023-01-08T07:32:22;8.60;;;2.75;;
60292;SDS011;52402;52.670;6.750;2023-01-08T07:34:48;9.48;;;3.00;;
60292;SDS011;52402;52.670;6.750;2023-01-08T07:37:13;7.95;;;2.40;;
60292;SDS011;52402;52.670;6.750;2023-01-08T07:39:39;8.23;;;2.90;;
60292;SDS011;52402;52.670;6.750;2023-01-08T07:42:05;7.43;;;2.60;;
60292;SDS011;52402;52.670;6.750;2023-01-08T07:44:30;9.43;;;2.70;;
60292;SDS011;52402;52.670;6.750;2023-01-08T07:46:56;7.32;;;2.42;;
60292;SDS011;52402;52.670;6.750;2023-01-08T07:49:21;9.43;;;2.72;;
60292;SDS011;52402;52.670;6.750;2023-01-08T07:51:50;9.40;;;2.85;;
60292;SDS011;52402;52.670;6.750;2023-01-08T07:54:17;8.13;;;2.60;;
60292;SDS011;52402;52.670;6.750;2023-01-08T07:56:44;9.15;;;2.92;;
60292;SDS011;52402;52.670;6.750;2023-01-08T07:59:09;8.02;;;2.88;;
60292;SDS011;52402;52.670;6.750;2023-01-08T08:01:35;6.90;;;2.30;;
60292;SDS011;52402;52.670;6.750;2023-01-08T08:04:01;8.35;;;2.90;;
60292;SDS011;52402;52.670;6.750;2023-01-08T08:06:26;8.93;;;3.08;;
60292;SDS011;52402;52.670;6.750;2023-01-08T08:08:52;9.27;;;3.30;;
60292;SDS011;52402;52.670;6.750;2023-01-08T08:11:17;8.27;;;2.78;;
60292;SDS011;52402;52.670;6.750;2023-01-08T08:13:43;6.18;;;2.75;;
60292;SDS011;52402;52.670;6.750;2023-01-08T08:16:09;10.32;;;3.10;;
60292;SDS011;52402;52.670;6.750;2023-01-08T08:18:35;8.60;;;2.60;;
60292;SDS011;52402;52.670;6.750;2023-01-08T08:21:01;8.15;;;2.85;;
60292;SDS011;52402;52.670;6.750;2023-01-08T08:23:27;8.43;;;2.95;;
60292;SDS011;52402;52.670;6.750;2023-01-08T08:25:53;6.30;;;2.60;;
60292;SDS011;52402;52.670;6.750;2023-01-08T08:28:19;8.10;;;2.88;;
60292;SDS011;52402;52.670;6.750;2023-01-08T08:30:45;10.07;;;2.70;;
60292;SDS011;52402;52.670;6.750;2023-01-08T08:33:11;7.55;;;2.40;;
60292;SDS011;52402;52.670;6.750;2023-01-08T08:35:36;7.88;;;2.45;;
60292;SDS011;52402;52.670;6.750;2023-01-08T08:38:02;7.15;;;2.45;;
60292;SDS011;52402;52.670;6.750;2023-01-08T08:40:28;6.38;;;2.50;;
60292;SDS011;52402;52.670;6.750;2023-01-08T08:42:55;6.07;;;2.40;;
60292;SDS011;52402;52.670;6.750;2023-01-08T08:45:26;6.47;;;2.40;;
60292;SDS011;52402;52.670;6.750;2023-01-08T08:47:52;6.95;;;2.47;;
60292;SDS011;52402;52.670;6.750;2023-01-08T08:50:17;7.28;;;2.42;;
60292;SDS011;52402;52.670;6.750;2023-01-08T08:52:43;6.60;;;2.47;;
60292;SDS011;52402;52.670;6.750;2023-01-08T08:55:10;7.50;;;2.90;;
60292;SDS011;52402;52.670;6.750;2023-01-08T08:57:40;6.45;;;2.72;;
60292;SDS011;52402;52.670;6.750;2023-01-08T09:00:06;8.25;;;2.80;;
60292;SDS011;52402;52.670;6.750;2023-01-08T09:02:32;7.85;;;2.70;;
60292;SDS011;52402;52.670;6.750;2023-01-08T09:04:57;6.93;;;2.40;;
60292;SDS011;52402;52.670;6.750;2023-01-08T09:07:23;5.25;;;2.45;;
60292;SDS011;52402;52.670;6.750;2023-01-08T09:09:49;9.02;;;2.78;;
60292;SDS011;52402;52.670;6.750;2023-01-08T09:12:14;9.00;;;2.60;;
60292;SDS011;52402;52.670;6.750;2023-01-08T09:14:40;7.65;;;2.45;;
60292;SDS011;52402;52.670;6.750;2023-01-08T09:17:05;7.25;;;2.58;;
60292;SDS011;52402;52.670;6.750;2023-01-08T09:19:31;8.05;;;2.72;;
60292;SDS011;52402;52.670;6.750;2023-01-08T09:21:57;8.27;;;2.63;;
60292;SDS011;52402;52.670;6.750;2023-01-08T09:24:22;8.18;;;2.47;;
60292;SDS011;52402;52.670;6.750;2023-01-08T09:26:48;7.22;;;2.22;;
60292;SDS011;52402;52.670;6.750;2023-01-08T09:29:13;7.90;;;2.42;;
60292;SDS011;52402;52.670;6.750;2023-01-08T09:31:39;6.07;;;2.10;;
60292;SDS011;52402;52.670;6.750;2023-01-08T09:34:05;8.02;;;2.33;;
60292;SDS011;52402;52.670;6.750;2023-01-08T09:36:30;10.10;;;2.83;;
60292;SDS011;52402;52.670;6.750;2023-01-08T09:38:56;9.35;;;2.20;;
60292;SDS011;52402;52.670;6.750;2023-01-08T09:41:23;8.82;;;2.45;;
60292;SDS011;52402;52.670;6.750;2023-01-08T09:46:18;7.82;;;2.70;;
60292;SDS011;52402;52.670;6.750;2023-01-08T09:48:47;10.45;;;2.47;;
60292;SDS011;52402;52.670;6.750;2023-01-08T09:51:16;7.43;;;2.40;;
60292;SDS011;52402;52.670;6.750;2023-01-08T09:53:43;8.60;;;2.58;;
60292;SDS011;52402;52.670;6.750;2023-01-08T09:56:13;7.10;;;2.42;;
60292;SDS011;52402;52.670;6.750;2023-01-08T09:58:50;9.82;;;3.05;;
60292;SDS011;52402;52.670;6.750;2023-01-08T10:01:28;8.15;;;2.33;;
60292;SDS011;52402;52.670;6.750;2023-01-08T10:04:05;12.98;;;3.00;;
60292;SDS011;52402;52.670;6.750;2023-01-08T10:06:38;11.88;;;2.90;;
60292;SDS011;52402;52.670;6.750;2023-01-08T10:09:05;11.32;;;2.65;;
60292;SDS011;52402;52.670;6.750;2023-01-08T10:11:43;11.25;;;2.58;;
60292;SDS011;52402;52.670;6.750;2023-01-08T10:14:21;8.93;;;2.38;;
60292;SDS011;52402;52.670;6.750;2023-01-08T10:17:00;12.43;;;3.15;;
60292;SDS011;52402;52.670;6.750;2023-01-08T10:19:41;11.80;;;3.20;;
60292;SDS011;52402;52.670;6.750;2023-01-08T10:22:09;11.52;;;2.70;;
60292;SDS011;52402;52.670;6.750;2023-01-08T10:24:39;7.90;;;2.58;;
60292;SDS011;52402;52.670;6.750;2023-01-08T10:27:05;9.90;;;2.33;;
60292;SDS011;52402;52.670;6.750;2023-01-08T10:29:39;11.50;;;2.83;;
60292;SDS011;52402;52.670;6.750;2023-01-08T10:32:12;12.07;;;3.50;;
60292;SDS011;52402;52.670;6.750;2023-01-08T10:37:15;10.52;;;2.42;;
60292;SDS011;52402;52.670;6.750;2023-01-08T10:39:48;10.27;;;3.00;;
60292;SDS011;52402;52.670;6.750;2023-01-08T10:42:16;12.73;;;3.10;;
60292;SDS011;52402;52.670;6.750;2023-01-08T10:47:22;10.80;;;2.55;;
60292;SDS011;52402;52.670;6.750;2023-01-08T10:49:49;12.85;;;2.70;;
60292;SDS011;52402;52.670;6.750;2023-01-08T10:52:37;12.18;;;3.20;;
60292;SDS011;52402;52.670;6.750;2023-01-08T11:00:30;12.85;;;2.70;;
60292;SDS011;52402;52.670;6.750;2023-01-08T11:03:07;9.90;;;3.13;;
60292;SDS011;52402;52.670;6.750;2023-01-08T11:05:48;13.30;;;3.10;;
60292;SDS011;52402;52.670;6.750;2023-01-08T11:08:17;9.77;;;2.33;;
60292;SDS011;52402;52.670;6.750;2023-01-08T11:10:58;11.02;;;2.58;;
60292;SDS011;52402;52.670;6.750;2023-01-08T11:13:25;9.40;;;2.40;;
60292;SDS011;52402;52.670;6.750;2023-01-08T11:16:10;10.43;;;2.70;;
60292;SDS011;52402;52.670;6.750;2023-01-08T11:18:41;13.15;;;3.20;;
60292;SDS011;52402;52.670;6.750;2023-01-08T11:21:18;14.25;;;3.08;;
60292;SDS011;52402;52.670;6.750;2023-01-08T11:24:34;11.38;;;2.55;;
60292;SDS011;52402;52.670;6.750;2023-01-08T11:26:43;12.60;;;2.90;;
60292;SDS011;52402;52.670;6.750;2023-01-08T11:29:33;13.40;;;3.20;;
60292;SDS011;52402;52.670;6.750;2023-01-08T11:32:32;11.27;;;2.70;;
60292;SDS011;52402;52.670;6.750;2023-01-08T11:37:48;10.77;;;2.72;;
60292;SDS011;52402;52.670;6.750;2023-01-08T11:43:27;14.55;;;3.30;;
60292;SDS011;52402;52.670;6.750;2023-01-08T11:51:50;11.95;;;2.90;;
60292;SDS011;52402;52.670;6.750;2023-01-08T12:02:29;12.43;;;3.60;;
60292;SDS011;52402;52.670;6.750;2023-01-08T12:08:11;12.57;;;3.30;;
60292;SDS011;52402;52.670;6.750;2023-01-08T12:21:33;9.60;;;2.53;;
60292;SDS011;52402;52.670;6.750;2023-01-08T12:24:17;11.65;;;2.75;;
60292;SDS011;52402;52.670;6.750;2023-01-08T12:27:03;7.38;;;2.50;;
60292;SDS011;52402;52.670;6.750;2023-01-08T12:32:30;10.93;;;2.92;;
60292;SDS011;52402;52.670;6.750;2023-01-08T12:35:10;9.60;;;2.72;;
60292;SDS011;52402;52.670;6.750;2023-01-08T12:37:46;10.88;;;2.80;;
60292;SDS011;52402;52.670;6.750;2023-01-08T12:40:19;11.25;;;3.13;;
60292;SDS011;52402;52.670;6.750;2023-01-08T12:42:53;7.82;;;2.53;;
60292;SDS011;52402;52.670;6.750;2023-01-08T12:45:25;9.63;;;2.70;;
60292;SDS011;52402;52.670;6.750;2023-01-08T12:47:58;10.43;;;2.70;;
60292;SDS011;52402;52.670;6.750;2023-01-08T12:50:38;10.95;;;2.70;;
60292;SDS011;52402;52.670;6.750;2023-01-08T12:53:22;10.68;;;2.53;;
60292;SDS011;52402;52.670;6.750;2023-01-08T12:56:25;10.23;;;2.80;;
60292;SDS011;52402;52.670;6.750;2023-01-08T12:59:14;10.57;;;2.80;;
60292;SDS011;52402;52.670;6.750;2023-01-08T13:01:57;12.82;;;3.05;;
60292;SDS011;52402;52.670;6.750;2023-01-08T13:04:38;9.90;;;2.55;;
60292;SDS011;52402;52.670;6.750;2023-01-08T13:07:05;8.75;;;2.10;;
60292;SDS011;52402;52.670;6.750;2023-01-08T13:09:34;7.45;;;2.40;;
60292;SDS011;52402;52.670;6.750;2023-01-08T13:12:00;6.70;;;2.05;;
60292;SDS011;52402;52.670;6.750;2023-01-08T13:14:26;8.07;;;2.08;;
60292;SDS011;52402;52.670;6.750;2023-01-08T13:17:02;9.77;;;2.38;;
60292;SDS011;52402;52.670;6.750;2023-01-08T13:19:41;8.02;;;2.25;;
60292;SDS011;52402;52.670;6.750;2023-01-08T13:22:23;9.18;;;2.42;;
60292;SDS011;52402;52.670;6.750;2023-01-08T13:25:06;9.32;;;2.47;;
60292;SDS011;52402;52.670;6.750;2023-01-08T13:27:48;9.00;;;2.15;;
60292;SDS011;52402;52.670;6.750;2023-01-08T13:32:58;6.68;;;2.10;;
60292;SDS011;52402;52.670;6.750;2023-01-08T13:35:25;9.15;;;2.63;;
60292;SDS011;52402;52.670;6.750;2023-01-08T13:40:38;9.57;;;2.33;;
60292;SDS011;52402;52.670;6.750;2023-01-08T13:48:37;8.18;;;1.95;;
60292;SDS011;52402;52.670;6.750;2023-01-08T13:54:47;5.38;;;1.67;;
60292;SDS011;52402;52.670;6.750;2023-01-08T13:56:54;6.32;;;1.65;;
60292;SDS011;52402;52.670;6.750;2023-01-08T13:59:41;6.65;;;1.92;;
60292;SDS011;52402;52.670;6.750;2023-01-08T14:02:28;5.65;;;1.63;;
60292;SDS011;52402;52.670;6.750;2023-01-08T14:04:56;6.72;;;1.95;;
60292;SDS011;52402;52.670;6.750;2023-01-08T14:07:24;4.38;;;1.60;;
60292;SDS011;52402;52.670;6.750;2023-01-08T14:09:50;6.55;;;1.75;;
60292;SDS011;52402;52.670;6.750;2023-01-08T14:12:20;5.50;;;1.60;;
60292;SDS011;52402;52.670;6.750;2023-01-08T14:14:57;6.40;;;1.50;;
60292;SDS011;52402;52.670;6.750;2023-01-08T14:17:30;4.03;;;1.63;;
60292;SDS011;52402;52.670;6.750;2023-01-08T14:19:57;6.18;;;1.77;;
60292;SDS011;52402;52.670;6.750;2023-01-08T14:22:25;6.38;;;1.40;;
60292;SDS011;52402;52.670;6.750;2023-01-08T14:24:57;4.78;;;1.88;;
60292;SDS011;52402;52.670;6.750;2023-01-08T14:27:29;5.88;;;1.80;;
60292;SDS011;52402;52.670;6.750;2023-01-08T14:29:55;4.65;;;1.55;;
60292;SDS011;52402;52.670;6.750;2023-01-08T14:32:23;4.85;;;1.33;;
60292;SDS011;52402;52.670;6.750;2023-01-08T14:34:56;4.65;;;1.52;;
60292;SDS011;52402;52.670;6.750;2023-01-08T14:37:24;6.13;;;1.40;;
60292;SDS011;52402;52.670;6.750;2023-01-08T14:39:50;5.65;;;1.50;;
60292;SDS011;52402;52.670;6.750;2023-01-08T14:42:17;4.47;;;1.63;;
60292;SDS011;52402;52.670;6.750;2023-01-08T14:45:07;4.20;;;1.65;;
60292;SDS011;52402;52.670;6.750;2023-01-08T14:47:43;5.78;;;1.50;;
60292;SDS011;52402;52.670;6.750;2023-01-08T14:50:26;4.68;;;1.45;;
60292;SDS011;52402;52.670;6.750;2023-01-08T14:52:57;5.05;;;1.80;;
60292;SDS011;52402;52.670;6.750;2023-01-08T14:55:43;4.70;;;1.20;;
60292;SDS011;52402;52.670;6.750;2023-01-08T14:58:14;4.07;;;1.40;;
60292;SDS011;52402;52.670;6.750;2023-01-08T15:00:48;4.38;;;1.65;;
60292;SDS011;52402;52.670;6.750;2023-01-08T15:03:38;3.65;;;1.30;;
60292;SDS011;52402;52.670;6.750;2023-01-08T15:06:06;4.97;;;1.60;;
60292;SDS011;52402;52.670;6.750;2023-01-08T15:08:36;4.30;;;1.48;;
60292;SDS011;52402;52.670;6.750;2023-01-08T15:18:45;4.53;;;1.75;;
60292;SDS011;52402;52.670;6.750;2023-01-08T15:21:16;6.10;;;1.90;;
60292;SDS011;52402;52.670;6.750;2023-01-08T15:23:45;5.20;;;1.60;;
60292;SDS011;52402;52.670;6.750;2023-01-08T15:26:13;4.13;;;1.60;;
60292;SDS011;52402;52.670;6.750;2023-01-08T15:31:29;5.85;;;2.03;;
60292;SDS011;52402;52.670;6.750;2023-01-08T15:34:01;6.07;;;1.95;;
60292;SDS011;52402;52.670;6.750;2023-01-08T15:36:26;6.70;;;2.08;;
60292;SDS011;52402;52.670;6.750;2023-01-08T15:38:52;6.65;;;2.15;;
60292;SDS011;52402;52.670;6.750;2023-01-08T15:41:21;6.65;;;1.95;;
60292;SDS011;52402;52.670;6.750;2023-01-08T15:44:23;8.40;;;2.70;;
60292;SDS011;52402;52.670;6.750;2023-01-08T15:46:52;7.03;;;2.33;;
60292;SDS011;52402;52.670;6.750;2023-01-08T15:49:18;7.68;;;2.30;;
60292;SDS011;52402;52.670;6.750;2023-01-08T15:51:45;6.78;;;2.33;;
60292;SDS011;52402;52.670;6.750;2023-01-08T15:54:13;8.60;;;2.90;;
60292;SDS011;52402;52.670;6.750;2023-01-08T15:56:39;7.13;;;2.70;;
60292;SDS011;52402;52.670;6.750;2023-01-08T15:59:05;5.93;;;2.60;;
60292;SDS011;52402;52.670;6.750;2023-01-08T16:01:32;6.70;;;2.60;;
60292;SDS011;52402;52.670;6.750;2023-01-08T16:03:57;8.27;;;2.42;;
60292;SDS011;52402;52.670;6.750;2023-01-08T16:06:23;7.95;;;2.47;;
60292;SDS011;52402;52.670;6.750;2023-01-08T16:08:49;6.57;;;2.97;;
60292;SDS011;52402;52.670;6.750;2023-01-08T16:11:16;7.35;;;2.47;;
60292;SDS011;52402;52.670;6.750;2023-01-08T16:13:42;8.63;;;2.70;;
60292;SDS011;52402;52.670;6.750;2023-01-08T16:16:08;8.45;;;2.85;;
60292;SDS011;52402;52.670;6.750;2023-01-08T16:18:35;7.53;;;2.63;;
60292;SDS011;52402;52.670;6.750;2023-01-08T16:21:02;6.45;;;2.50;;
60292;SDS011;52402;52.670;6.750;2023-01-08T16:23:28;7.63;;;2.60;;
60292;SDS011;52402;52.670;6.750;2023-01-08T16:25:54;6.70;;;2.80;;
60292;SDS011;52402;52.670;6.750;2023-01-08T16:28:20;8.75;;;2.42;;
60292;SDS011;52402;52.670;6.750;2023-01-08T16:30:45;7.18;;;2.50;;
60292;SDS011;52402;52.670;6.750;2023-01-08T16:33:11;8.00;;;2.63;;
60292;SDS011;52402;52.670;6.750;2023-01-08T16:35:37;7.40;;;2.20;;
60292;SDS011;52402;52.670;6.750;2023-01-08T16:38:02;6.40;;;2.38;;
60292;SDS011;52402;52.670;6.750;2023-01-08T16:40:28;7.72;;;2.60;;
60292;SDS011;52402;52.670;6.750;2023-01-08T16:42:58;7.05;;;3.10;;
60292;SDS011;52402;52.670;6.750;2023-01-08T16:45:25;8.75;;;3.22;;